Time;durP1;ratioP1;P1;durP2;ratioP2;P2;SDS_P1;SDS_P2;PMS_P1;PMS_P2;Temp;Humidity;BMP_temperature;BMP_pressure;BME280_temperature;BME280_humidity;BME280_pressure;Samples;Min_cycle;Max_cycle;Signal;HPM_P1;HPM_P2
2024/03/01 00:02:07;;;;;;;28.65;16.50;;;;;;;12.58;60.27;99444.28;4944629;28;20027;-92
2024/03/01 00:04:32;;;;;;;33.33;16.85;;;;;;;12.47;60.33;99424.63;4943491;28;20050;-92
2024/03/01 00:06:58;;;;;;;29.55;16.83;;;;;;;12.67;59.76;99440.69;4961572;28;20045;-92
2024/03/01 00:09:23;;;;;;;28.85;16.80;;;;;;;12.65;59.57;99433.97;4929942;29;20086;-93
2024/03/01 00:11:49;;;;;;;27.95;16.48;;;;;;;12.83;59.53;99454.94;4940265;29;20023;-92
2024/03/01 00:14:14;;;;;;;30.30;17.38;;;;;;;12.88;59.47;99452.16;4914804;29;20027;-92
2024/03/01 00:16:40;;;;;;;28.80;16.90;;;;;;;12.86;59.37;99445.44;4924460;29;20027;-92
2024/03/01 00:19:05;;;;;;;34.65;17.55;;;;;;;12.84;59.10;99437.59;4926165;29;20038;-92
2024/03/01 00:21:31;;;;;;;29.40;16.73;;;;;;;12.83;58.99;99427.91;4924625;29;20077;-92
2024/03/01 00:23:56;;;;;;;30.92;16.73;;;;;;;12.93;58.95;99435.13;4908993;29;20417;-92
2024/03/01 00:26:22;;;;;;;27.75;16.45;;;;;;;12.97;59.07;99432.66;4926007;29;20038;-91
2024/03/01 00:28:47;;;;;;;30.70;16.77;;;;;;;12.94;58.98;99425.91;4923852;29;20044;-90
2024/03/01 00:31:13;;;;;;;28.58;16.25;;;;;;;12.98;58.64;99426.16;4924419;29;20030;-91
2024/03/01 00:33:38;;;;;;;34.83;17.58;;;;;;;12.99;58.90;99430.47;4920421;29;20055;-91
2024/03/01 00:36:04;;;;;;;26.80;16.40;;;;;;;12.95;58.59;99416.75;4939250;29;20516;-91
2024/03/01 00:38:30;;;;;;;27.23;17.10;;;;;;;12.92;58.68;99414.59;4939560;29;20031;-90
2024/03/01 00:40:55;;;;;;;31.17;16.83;;;;;;;13.02;58.34;99424.50;4939342;29;20019;-91
2024/03/01 00:43:20;;;;;;;30.10;17.25;;;;;;;13.20;58.21;99445.44;4924029;29;20034;-91
2024/03/01 00:45:46;;;;;;;31.63;17.92;;;;;;;13.09;58.27;99427.69;4924147;29;20027;-90
2024/03/01 00:48:13;;;;;;;31.08;18.17;;;;;;;13.09;58.18;99433.09;4928975;29;20110;-92
2024/03/01 00:50:39;;;;;;;26.52;16.67;;;;;;;13.09;58.39;99433.91;4920450;29;20027;-92
2024/03/01 00:53:04;;;;;;;34.83;18.13;;;;;;;13.10;58.66;99438.22;4920786;29;20395;-92
2024/03/01 00:55:31;;;;;;;31.05;18.67;;;;;;;13.16;58.19;99441.69;4920438;29;20038;-92
2024/03/01 00:57:57;;;;;;;28.35;16.80;;;;;;;13.09;58.38;99423.09;4904890;29;20031;-92
2024/03/01 01:00:22;;;;;;;33.05;19.20;;;;;;;13.14;58.30;99427.66;4921219;29;20075;-91
2024/03/01 01:02:48;;;;;;;30.75;17.77;;;;;;;13.13;58.43;99418.72;4921098;29;20020;-92
2024/03/01 01:05:14;;;;;;;31.38;17.73;;;;;;;13.19;58.47;99433.00;4920878;29;20015;-92
2024/03/01 01:07:39;;;;;;;35.65;19.00;;;;;;;13.25;58.59;99439.97;4920087;29;20032;-92
2024/03/01 01:10:05;;;;;;;31.88;18.58;;;;;;;13.17;58.59;99424.38;4920453;29;20028;-91
2024/03/01 01:12:31;;;;;;;35.92;19.02;;;;;;;13.09;58.67;99404.19;4921234;29;20024;-91
2024/03/01 01:14:56;;;;;;;32.58;18.48;;;;;;;13.37;58.46;99433.44;4905905;29;20031;-91
2024/03/01 01:17:22;;;;;;;34.58;19.73;;;;;;;13.28;58.29;99412.38;4906100;29;20036;-91
2024/03/01 01:19:47;;;;;;;40.20;19.98;;;;;;;13.29;58.55;99405.91;4889567;29;20034;-91
2024/03/01 01:22:13;;;;;;;32.22;18.27;;;;;;;13.42;57.92;99411.72;4893361;29;20031;-90
2024/03/01 01:24:38;;;;;;;33.47;19.13;;;;;;;13.40;58.36;99422.03;4899361;29;20028;-91
2024/03/01 01:27:04;;;;;;;36.20;19.08;;;;;;;13.44;58.20;99404.13;4870736;29;20087;-91
2024/03/01 01:29:30;;;;;;;34.92;18.27;;;;;;;13.37;58.30;99393.66;4872023;29;20127;-91
2024/03/01 01:31:56;;;;;;;31.83;18.42;;;;;;;13.38;58.31;99387.16;4886617;29;20083;-91
2024/03/01 01:34:22;;;;;;;31.55;18.17;;;;;;;13.42;58.29;99392.78;4886027;29;20043;-92
2024/03/01 01:36:48;;;;;;;32.65;18.45;;;;;;;13.43;58.18;99386.31;4870981;29;20028;-92
2024/03/01 01:39:13;;;;;;;32.95;19.00;;;;;;;13.43;58.29;99389.81;4885778;29;20489;-91
2024/03/01 01:41:39;;;;;;;37.30;18.80;;;;;;;13.54;58.07;99385.88;4886871;29;20090;-91
2024/03/01 01:44:04;;;;;;;30.45;18.55;;;;;;;13.49;57.95;99361.63;4886708;29;20164;-92
2024/03/01 01:46:30;;;;;;;37.13;17.98;;;;;;;13.47;57.76;99355.69;4870033;29;20059;-90
2024/03/01 01:48:56;;;;;;;31.20;17.80;;;;;;;13.63;57.76;99377.16;4897380;29;20047;-92
2024/03/01 01:51:21;;;;;;;31.77;16.70;;;;;;;13.53;57.68;99348.31;4922655;29;20107;-92
2024/03/01 01:53:47;;;;;;;32.78;18.08;;;;;;;13.64;57.76;99359.84;4938919;29;20023;-92
2024/03/01 01:56:13;;;;;;;39.35;18.00;;;;;;;13.61;57.65;99365.81;4936933;29;20034;-92
2024/03/01 01:58:38;;;;;;;30.05;17.42;;;;;;;13.73;57.74;99372.41;4944839;28;20033;-92
2024/03/01 02:01:07;;;;;;;35.40;17.52;;;;;;;13.71;57.28;99354.84;4943004;28;20473;-92
2024/03/01 02:03:35;;;;;;;29.55;17.40;;;;;;;13.64;57.23;99327.38;4942941;28;20110;-91
2024/03/01 02:06:04;;;;;;;31.00;17.58;;;;;;;13.72;57.04;99321.31;4942405;28;20022;-92
2024/03/01 02:08:33;;;;;;;32.55;17.00;;;;;;;13.74;57.04;99330.75;4959079;28;20023;-92
2024/03/01 02:10:59;;;;;;;27.10;16.10;;;;;;;13.72;56.73;99305.88;4958071;28;20026;-92
2024/03/01 02:13:25;;;;;;;30.95;16.75;;;;;;;13.67;56.69;99283.47;4958336;28;20036;-91
2024/03/01 02:15:51;;;;;;;30.45;15.85;;;;;;;13.85;56.68;99290.00;4954169;29;20031;-91
2024/03/01 02:18:17;;;;;;;25.77;15.48;;;;;;;13.70;56.54;99270.19;4938657;29;20027;-92
2024/03/01 02:21:06;;;;;;;32.10;16.83;;;;;;;13.84;56.65;99310.03;4938904;29;20030;-92
2024/03/01 02:23:32;;;;;;;34.70;17.13;;;;;;;13.54;56.90;99280.38;4916341;29;20035;-91
2024/03/01 02:25:57;;;;;;;29.05;17.17;;;;;;;13.49;56.46;99287.78;4942395;29;20027;-91
2024/03/01 02:28:23;;;;;;;30.73;16.70;;;;;;;13.34;57.24;99283.34;4926779;29;20482;-91
2024/03/01 02:30:51;;;;;;;32.75;17.00;;;;;;;13.26;57.09;99292.06;4926886;29;20026;-92
2024/03/01 02:33:18;;;;;;;31.77;18.25;;;;;;;13.24;57.57;99310.47;4927085;29;20054;-91
2024/03/01 02:35:43;;;;;;;34.67;16.83;;;;;;;13.17;57.94;99302.72;4943247;29;20405;-91
2024/03/01 02:38:08;;;;;;;31.65;15.70;;;;;;;13.28;57.53;99315.03;4942737;29;20126;-92
2024/03/01 02:40:34;;;;;;;25.73;16.17;;;;;;;13.05;58.26;99292.31;4941831;29;20031;-91
2024/03/01 02:42:59;;;;;;;28.38;17.38;;;;;;;12.81;58.89;99283.38;4926763;29;20501;-91
2024/03/01 02:45:25;;;;;;;26.75;17.15;;;;;;;12.46;59.31;99293.41;4941652;29;20485;-92
2024/03/01 02:47:50;;;;;;;29.70;17.48;;;;;;;12.22;59.46;99304.09;4918899;29;20048;-92
2024/03/01 02:50:16;;;;;;;27.95;16.55;;;;;;;12.12;59.78;99342.78;4923207;29;20046;-92
2024/03/01 02:52:41;;;;;;;31.15;17.75;;;;;;;11.62;61.20;99333.81;4922227;29;20036;-92
2024/03/01 02:55:10;;;;;;;29.48;17.63;;;;;;;11.57;61.72;99336.53;4907817;29;20083;-93
2024/03/01 02:57:36;;;;;;;28.83;17.13;;;;;;;11.59;61.75;99340.56;4923133;29;20024;-93
2024/03/01 03:00:05;;;;;;;26.23;16.90;;;;;;;11.65;61.73;99327.88;4906812;29;20020;-90
2024/03/01 03:02:33;;;;;;;33.30;17.70;;;;;;;11.38;62.34;99288.63;4923799;29;20023;-91
2024/03/01 03:04:59;;;;;;;30.00;18.38;;;;;;;11.38;62.99;99320.16;4905837;29;20092;-92
2024/03/01 03:07:25;;;;;;;34.60;19.98;;;;;;;11.18;63.69;99326.41;4921864;29;20040;-91
2024/03/01 03:09:50;;;;;;;34.88;18.42;;;;;;;10.97;64.32;99333.72;4921828;29;20039;-92
2024/03/01 03:12:16;;;;;;;32.78;18.38;;;;;;;10.79;64.54;99319.75;4921416;29;20028;-91
2024/03/01 03:14:41;;;;;;;30.50;17.95;;;;;;;10.72;64.72;99327.28;4923244;29;20063;-92
2024/03/01 03:17:07;;;;;;;26.75;16.67;;;;;;;10.68;64.58;99324.31;4922472;29;20030;-92
2024/03/01 03:19:35;;;;;;;29.40;18.05;;;;;;;10.60;65.19;99324.88;4922539;29;20035;-91
2024/03/01 03:22:06;;;;;;;31.85;18.30;;;;;;;10.40;65.46;99301.47;4923101;29;20051;-92
2024/03/01 03:24:31;;;;;;;30.98;18.15;;;;;;;10.45;66.13;99341.03;4922421;29;20031;-91
2024/03/01 03:26:57;;;;;;;31.63;18.42;;;;;;;10.27;65.98;99318.09;4938055;29;20028;-91
2024/03/01 03:29:22;;;;;;;34.50;18.45;;;;;;;10.14;67.11;99337.47;4908880;29;20035;-91
2024/03/01 03:31:48;;;;;;;34.00;19.33;;;;;;;10.41;66.62;99377.63;4923561;29;20501;-91
2024/03/01 03:34:13;;;;;;;32.50;18.70;;;;;;;10.34;66.37;99347.50;4924485;29;20019;-91
2024/03/01 03:36:38;;;;;;;37.25;19.58;;;;;;;10.39;66.71;99356.34;4923782;29;20039;-91
2024/03/01 03:39:06;;;;;;;29.58;18.42;;;;;;;10.32;66.42;99332.41;4922693;29;20127;-92
2024/03/01 03:41:33;;;;;;;31.50;18.17;;;;;;;10.31;66.67;99335.34;4922440;29;20016;-91
2024/03/01 03:43:59;;;;;;;27.45;17.45;;;;;;;10.22;66.79;99326.16;4921549;29;20030;-89
2024/03/01 03:46:24;;;;;;;31.50;17.75;;;;;;;10.25;66.80;99328.31;4923516;29;20023;-92
2024/03/01 03:48:50;;;;;;;30.70;18.15;;;;;;;10.28;67.19;99343.94;4922362;29;20430;-92
2024/03/01 03:51:25;;;;;;;34.38;18.33;;;;;;;10.07;67.38;99314.31;4922088;29;20020;-92
2024/03/01 03:53:52;;;;;;;33.83;17.75;;;;;;;10.12;67.14;99318.88;4917243;29;20418;-91
2024/03/01 03:56:17;;;;;;;28.42;17.83;;;;;;;9.97;67.28;99297.34;4919426;29;20023;-92
2024/03/01 03:58:43;;;;;;;37.03;19.08;;;;;;;10.09;67.51;99317.53;4926560;29;20110;-91
2024/03/01 04:01:08;;;;;;;30.52;18.00;;;;;;;9.93;68.06;99297.06;4900733;29;20067;-91
2024/03/01 04:03:34;;;;;;;27.63;17.90;;;;;;;9.86;68.11;99304.59;4905822;29;20059;-92
2024/03/01 04:05:59;;;;;;;30.90;17.38;;;;;;;9.98;67.67;99313.22;4922459;29;20059;-91
2024/03/01 04:08:25;;;;;;;32.90;18.85;;;;;;;9.82;68.20;99307.00;4906676;29;20035;-91
2024/03/01 04:10:50;;;;;;;29.02;18.15;;;;;;;9.81;68.35;99310.75;4904953;29;20110;-92
2024/03/01 04:13:16;;;;;;;29.05;18.50;;;;;;;9.70;68.77;99285.72;4922402;29;20075;-91
2024/03/01 04:15:43;;;;;;;33.53;19.23;;;;;;;9.78;69.23;99311.28;4921443;29;20031;-91
2024/03/01 04:18:10;;;;;;;32.80;19.00;;;;;;;9.63;69.00;99276.28;4904813;29;20030;-92
2024/03/01 04:20:36;;;;;;;32.25;18.77;;;;;;;9.89;68.20;99310.22;4921464;29;20026;-92
2024/03/01 04:23:04;;;;;;;29.67;17.40;;;;;;;9.62;69.01;99280.84;4904598;29;20024;-91
2024/03/01 04:25:31;;;;;;;27.40;17.00;;;;;;;9.64;69.39;99284.06;4921968;29;20034;-92
2024/03/01 04:27:56;;;;;;;30.73;17.88;;;;;;;9.72;68.49;99288.13;4921101;29;20028;-91
2024/03/01 04:30:23;;;;;;;29.48;17.35;;;;;;;9.94;68.78;99306.75;4938119;29;20216;-92
2024/03/01 04:32:48;;;;;;;28.33;17.90;;;;;;;9.92;68.68;99290.09;4921150;29;20027;-92
2024/03/01 04:35:14;;;;;;;31.25;18.35;;;;;;;9.88;68.70;99286.31;4920579;29;20410;-91
2024/03/01 04:37:40;;;;;;;32.38;17.98;;;;;;;10.03;68.34;99297.09;4920899;29;20079;-90
2024/03/01 04:40:05;;;;;;;30.83;17.40;;;;;;;10.08;68.12;99288.22;4920913;29;20039;-91
2024/03/01 04:42:31;;;;;;;29.17;17.02;;;;;;;10.18;68.05;99287.41;4921040;29;20028;-92
2024/03/01 04:44:56;;;;;;;30.70;18.52;;;;;;;10.08;68.26;99272.06;4920984;29;20050;-91
2024/03/01 04:47:22;;;;;;;32.58;18.10;;;;;;;9.91;68.29;99254.28;4921571;29;20055;-91
2024/03/01 04:49:48;;;;;;;34.50;17.05;;;;;;;10.06;68.40;99298.44;4920912;29;21581;-93
2024/03/01 04:52:14;;;;;;;29.67;17.13;;;;;;;9.88;68.24;99249.47;4921466;29;20167;-92
2024/03/01 04:54:39;;;;;;;26.70;16.98;;;;;;;10.04;68.12;99265.59;4921088;29;20031;-92
2024/03/01 04:57:06;;;;;;;34.92;18.80;;;;;;;9.96;68.96;99264.28;4922005;29;20031;-91
2024/03/01 04:59:38;;;;;;;27.67;18.27;;;;;;;9.79;69.51;99259.09;4921597;29;20039;-92
2024/03/01 05:02:04;;;;;;;34.67;19.63;;;;;;;9.81;69.04;99266.91;4921561;29;20474;-92
2024/03/01 05:04:30;;;;;;;39.38;19.13;;;;;;;9.68;69.25;99250.22;4894096;29;20091;-92
2024/03/01 05:06:55;;;;;;;34.03;18.92;;;;;;;9.53;69.34;99233.25;4890919;29;20023;-92
2024/03/01 05:09:21;;;;;;;34.22;18.88;;;;;;;9.74;68.86;99259.09;4922784;29;20031;-91
2024/03/01 05:11:46;;;;;;;36.50;20.98;;;;;;;9.75;69.02;99255.34;4922386;29;20074;-90
2024/03/01 05:14:12;;;;;;;36.55;19.35;;;;;;;9.75;68.81;99247.25;4906230;29;20031;-92
2024/03/01 05:16:38;;;;;;;33.17;18.52;;;;;;;9.93;68.37;99254.03;4893386;29;20524;-90
2024/03/01 05:19:03;;;;;;;31.15;17.48;;;;;;;10.15;68.15;99272.63;4908290;29;20024;-92
2024/03/01 05:21:29;;;;;;;26.60;16.02;;;;;;;10.17;67.41;99267.78;4891649;29;20023;-91
2024/03/01 05:23:54;;;;;;;31.08;17.98;;;;;;;10.25;67.09;99263.72;4907973;29;20086;-93
2024/03/01 05:26:20;;;;;;;33.17;18.88;;;;;;;10.26;66.93;99249.22;4891977;29;20079;-91
2024/03/01 05:28:46;;;;;;;31.77;16.92;;;;;;;10.62;66.23;99290.41;4890579;29;20031;-92
2024/03/01 05:31:11;;;;;;;30.55;17.40;;;;;;;10.49;66.32;99270.22;4892411;29;20028;-92
2024/03/01 05:33:37;;;;;;;36.97;17.85;;;;;;;10.57;66.19;99255.41;4891395;29;20130;-90
2024/03/01 05:36:06;;;;;;;31.13;17.02;;;;;;;10.77;65.41;99262.66;4892203;29;20082;-93
2024/03/01 05:38:33;;;;;;;26.50;16.20;;;;;;;10.83;64.53;99255.38;4909442;29;20031;-94
2024/03/01 05:41:00;;;;;;;23.58;15.57;;;;;;;10.90;64.15;99242.44;4891783;29;20022;-94
2024/03/01 05:43:26;;;;;;;29.35;16.33;;;;;;;10.96;63.55;99240.50;4886424;29;20032;-93
2024/03/01 05:45:55;;;;;;;28.08;15.13;;;;;;;11.01;63.23;99252.09;4872842;29;20040;-95
2024/03/01 05:48:21;;;;;;;26.15;14.70;;;;;;;11.11;63.14;99260.13;4912920;29;20050;-94
2024/03/01 05:50:46;;;;;;;32.47;15.38;;;;;;;11.23;62.80;99270.63;4927545;29;20035;-95
2024/03/01 05:53:15;;;;;;;27.75;14.00;;;;;;;11.23;62.11;99248.25;4944342;29;20068;-94
2024/03/01 05:55:40;;;;;;;25.35;15.25;;;;;;;11.23;61.76;99237.47;4927167;29;20027;-93
2024/03/01 05:58:06;;;;;;;28.88;15.70;;;;;;;11.48;61.67;99264.31;4933686;29;20038;-95
2024/03/01 06:01:01;;;;;;;52.97;17.83;;;;;;;11.39;61.62;99241.69;4940389;29;20039;-96
2024/03/01 06:03:30;;;;;;;36.35;15.32;;;;;;;11.66;61.41;99275.53;4973156;29;20038;-95
2024/03/01 06:09:09;;;;;;;;;;;;;;;11.81;60.30;99280.88;5099954;23;20099;-95
2024/03/01 06:11:39;;;;;;;28.83;14.93;;;;;;;11.71;59.97;99252.06;4945999;29;19953;-92
2024/03/01 06:14:21;;;;;;;26.73;15.82;;;;;;;11.79;59.63;99252.56;4947495;29;20092;-95
2024/03/01 06:16:48;;;;;;;27.10;16.25;;;;;;;11.79;59.67;99257.97;4954765;29;20027;-93
2024/03/01 06:19:23;;;;;;;28.70;15.40;;;;;;;11.94;59.26;99257.88;4947766;29;20019;-94
2024/03/01 06:21:48;;;;;;;34.22;16.13;;;;;;;11.98;58.99;99256.22;4945683;29;20023;-94
2024/03/01 06:24:14;;;;;;;30.10;15.90;;;;;;;12.10;58.59;99262.09;4947842;29;20102;-91
2024/03/01 06:26:40;;;;;;;27.67;15.32;;;;;;;12.19;58.32;99261.50;4918278;28;20034;-94
2024/03/01 06:29:05;;;;;;;32.28;15.35;;;;;;;12.27;58.33;99269.78;4914706;28;20476;-93
2024/03/01 06:31:30;;;;;;;34.45;16.77;;;;;;;12.28;58.48;99251.69;4910979;29;20050;-92
2024/03/01 06:34:02;;;;;;;31.55;17.50;;;;;;;12.41;58.95;99256.44;4960898;29;20023;-94
2024/03/01 06:36:27;;;;;;;37.55;22.25;;;;;;;12.18;59.95;99241.78;4944378;28;20054;-92
2024/03/01 06:38:53;;;;;;;39.42;19.50;;;;;;;12.43;59.68;99270.47;4917102;29;20031;-94
2024/03/01 06:41:19;;;;;;;47.97;22.77;;;;;;;12.31;60.05;99251.13;4934414;29;20042;-96
2024/03/01 06:43:47;;;;;;;40.70;18.52;;;;;;;12.37;59.81;99254.56;4957718;29;20023;-96
2024/03/01 06:46:30;;;;;;;41.05;20.50;;;;;;;12.47;59.38;99241.00;4953163;29;20023;-96
2024/03/01 06:49:17;;;;;;;37.75;19.48;;;;;;;12.48;59.16;99238.00;4955672;29;20031;-96
2024/03/01 06:59:02;;;;;;;40.20;19.15;;;;;;;12.97;58.82;99290.22;4946378;23;20058;-96
2024/03/01 07:11:59;;;;;;;35.28;19.08;;;;;;;12.79;58.77;99275.53;5231475;23;20050;-96
2024/03/01 07:14:44;;;;;;;;;;;;;;;;;;;;;
2024/03/01 07:17:22;;;;;;;36.00;19.50;;;;;;;12.68;59.12;99265.94;4925290;29;20091;-95
2024/03/01 07:20:15;;;;;;;36.80;19.00;;;;;;;12.41;59.42;99234.84;4951602;29;20046;-96
2024/03/01 07:22:42;;;;;;;38.90;20.98;;;;;;;12.44;59.42;99241.56;4960333;29;20035;-95
2024/03/01 07:25:07;;;;;;;36.35;19.20;;;;;;;12.46;59.43;99242.09;4929111;29;20505;-92
2024/03/01 07:27:36;;;;;;;137.65;82.22;;;;;;;12.51;59.24;99236.63;4927815;29;20502;-96
2024/03/01 07:30:09;;;;;;;30.65;19.25;;;;;;;12.53;59.27;99234.44;4933487;29;20061;-96
2024/03/01 07:32:53;;;;;;;28.95;18.00;;;;;;;12.71;57.96;99225.63;4951258;29;20063;-96
2024/03/01 07:35:27;;;;;;;28.67;16.65;;;;;;;12.77;57.79;99223.69;4950665;29;20413;-96
2024/03/01 07:37:56;;;;;;;32.60;16.90;;;;;;;12.92;57.39;99238.94;4950069;29;20027;-96
2024/03/01 07:40:22;;;;;;;40.13;19.77;;;;;;;12.82;57.57;99229.03;4944753;28;20049;-93
2024/03/01 07:43:20;;;;;;;37.75;17.65;;;;;;;13.07;57.14;99252.28;4950785;29;20019;-96
2024/03/01 07:45:58;;;;;;;37.33;17.95;;;;;;;13.23;57.72;99252.88;5286565;23;20109;-95
2024/03/01 07:48:38;;;;;;;34.63;18.13;;;;;;;13.06;57.16;99231.75;4959560;28;20038;-96
2024/03/01 07:51:11;;;;;;;47.45;27.00;;;;;;;13.13;56.49;99205.16;4981567;28;20181;-95
2024/03/01 07:54:04;;;;;;;91.75;50.97;;;;;;;13.29;55.70;99219.31;4974424;28;20077;-96
2024/03/01 07:56:36;;;;;;;31.73;17.40;;;;;;;13.44;55.63;99223.72;4984815;28;20046;-94
2024/03/01 07:59:11;;;;;;;40.45;17.13;;;;;;;13.46;55.39;99213.41;5133333;23;20043;-95
2024/03/01 08:01:44;;;;;;;34.13;17.58;;;;;;;13.77;55.30;99239.25;4959494;28;20091;-95
2024/03/01 08:04:11;;;;;;;;;;;;;;;13.90;55.17;99252.88;5251777;23;20048;-93
2024/03/01 08:06:46;;;;;;;31.77;16.45;;;;;;;13.93;55.23;99249.56;5005192;28;19948;-96
2024/03/01 08:09:31;;;;;;;41.78;17.90;;;;;;;13.97;55.04;99230.03;4956790;28;20030;-92
2024/03/01 08:11:57;;;;;;;40.63;25.08;;;;;;;13.98;54.55;99218.88;4960362;28;20026;-91
2024/03/01 08:14:33;;;;;;;37.20;19.85;;;;;;;14.22;54.33;99236.94;4981632;28;20034;-93
2024/03/01 08:16:59;;;;;;;42.35;23.80;;;;;;;14.09;55.14;99216.81;4984738;28;20597;-92
2024/03/01 08:19:31;;;;;;;65.18;37.88;;;;;;;14.37;55.02;99241.31;4987274;28;20037;-93
2024/03/01 08:22:21;;;;;;;35.08;17.83;;;;;;;14.37;54.92;99235.88;5000019;28;20476;-91
2024/03/01 08:24:56;;;;;;;40.58;19.33;;;;;;;14.42;54.36;99241.19;4991197;28;20042;-94
2024/03/01 08:27:24;;;;;;;41.45;21.58;;;;;;;14.38;54.66;99222.06;4986104;28;20025;-96
2024/03/01 08:29:54;;;;;;;44.53;19.75;;;;;;;14.42;53.98;99214.09;4980267;28;20037;-93
2024/03/01 08:32:51;;;;;;;32.17;20.50;;;;;;;14.53;54.17;99224.47;4975696;28;20511;-94
2024/03/01 08:35:20;;;;;;;38.15;20.48;;;;;;;14.58;54.29;99215.47;4989960;28;20053;-92
2024/03/01 08:37:45;;;;;;;54.88;22.30;;;;;;;14.61;54.06;99212.19;4971992;28;20021;-91
2024/03/01 08:40:32;;;;;;;44.00;21.88;;;;;;;14.81;53.89;99221.03;4965800;28;20033;-93
2024/03/01 08:43:10;;;;;;;37.15;21.00;;;;;;;14.81;53.80;99200.13;5001366;28;20469;-94
2024/03/01 08:45:42;;;;;;;48.05;25.95;;;;;;;14.85;53.48;99200.34;4997463;28;20041;-93
2024/03/01 08:48:18;;;;;;;46.45;24.27;;;;;;;14.94;53.30;99196.66;4961046;28;20037;-94
2024/03/01 08:50:47;;;;;;;45.13;24.10;;;;;;;15.02;53.61;99194.31;5287446;23;20061;-93
2024/03/01 08:53:26;;;;;;;45.38;23.35;;;;;;;15.04;53.69;99208.38;4969444;28;20034;-96
2024/03/01 08:55:55;;;;;;;44.33;22.85;;;;;;;15.03;53.62;99194.03;4971791;28;20342;-91
2024/03/01 08:58:39;;;;;;;39.90;21.00;;;;;;;15.25;53.65;99223.16;4949602;29;20034;-93
2024/03/01 09:01:18;;;;;;;34.92;19.67;;;;;;;15.08;52.91;99174.94;4948853;28;20027;-91
2024/03/01 09:03:44;;;;;;;62.45;30.50;;;;;;;15.30;52.87;99214.09;4930099;29;20074;-94
2024/03/01 09:06:33;;;;;;;47.20;24.00;;;;;;;15.02;52.93;99194.31;4950292;28;20026;-94
2024/03/01 09:08:58;;;;;;;39.33;24.00;;;;;;;15.07;53.07;99191.53;4937319;29;20023;-94
2024/03/01 09:12:02;;;;;;;49.20;24.73;;;;;;;14.93;53.66;99178.75;4936327;28;20034;-95
2024/03/01 09:14:33;;;;;;;45.80;23.38;;;;;;;14.92;53.21;99181.75;4910342;29;20039;-94
2024/03/01 09:17:01;;;;;;;41.40;26.53;;;;;;;15.06;52.82;99184.47;4905793;29;20035;-92
2024/03/01 09:19:31;;;;;;;35.13;21.60;;;;;;;15.08;52.28;99166.78;4916599;29;20406;-96
2024/03/01 09:21:56;;;;;;;51.72;30.70;;;;;;;15.23;52.22;99194.69;4918979;29;20035;-92
2024/03/01 09:24:22;;;;;;;33.33;20.75;;;;;;;15.19;51.54;99183.69;4922983;29;20065;-96
2024/03/01 09:26:49;;;;;;;37.58;21.80;;;;;;;15.18;51.27;99160.34;4920366;29;20135;-96
2024/03/01 09:29:46;;;;;;;38.95;20.95;;;;;;;15.39;51.44;99203.31;4935167;28;20041;-95
2024/03/01 09:32:22;;;;;;;43.38;23.40;;;;;;;15.21;51.33;99177.94;4991617;28;20462;-94
2024/03/01 09:35:12;;;;;;;51.03;27.20;;;;;;;15.21;51.40;99176.03;4953556;28;20408;-93
2024/03/01 09:37:38;;;;;;;41.47;22.05;;;;;;;15.27;51.35;99204.66;4940616;28;20035;-94
2024/03/01 09:40:25;;;;;;;48.35;22.90;;;;;;;15.12;51.57;99189.47;4937642;28;20039;-93
2024/03/01 09:42:57;;;;;;;40.45;19.85;;;;;;;15.06;51.53;99177.13;4954128;28;20404;-94
2024/03/01 09:45:23;;;;;;;;;;;;;;;15.26;52.01;99208.47;4938494;28;20042;-93
2024/03/01 09:48:12;;;;;;;31.13;17.90;;;;;;;15.19;52.18;99194.53;4966935;28;20488;-94
2024/03/01 09:51:01;;;;;;;33.17;19.50;;;;;;;15.16;52.43;99195.91;4947090;28;20310;-92
2024/03/01 09:53:30;;;;;;;37.60;19.60;;;;;;;15.24;52.22;99204.47;4958803;28;20521;-91
2024/03/01 09:56:11;;;;;;;32.83;19.95;;;;;;;15.30;52.22;99186.97;4943413;29;20028;-92
2024/03/01 09:59:00;;;;;;;43.37;21.20;;;;;;;15.34;52.30;99193.38;4938407;29;20035;-91
2024/03/01 10:01:31;;;;;;;35.33;19.88;;;;;;;15.27;51.64;99163.16;4964981;29;20041;-91
2024/03/01 10:04:19;;;;;;;43.97;25.20;;;;;;;15.60;51.65;99190.09;4946205;29;20027;-92
2024/03/01 10:06:52;;;;;;;49.78;23.15;;;;;;;15.70;51.88;99187.94;4965228;29;20031;-92
2024/03/01 10:09:37;;;;;;;36.00;22.48;;;;;;;15.58;51.79;99160.56;4964879;29;20022;-92
2024/03/01 10:12:04;;;;;;;45.65;24.27;;;;;;;15.80;51.79;99172.59;4946307;29;20035;-92
2024/03/01 10:14:42;;;;;;;35.05;20.00;;;;;;;15.58;51.42;99133.41;4963568;28;20035;-91
2024/03/01 10:17:22;;;;;;;39.38;20.27;;;;;;;15.75;50.96;99160.72;4964831;28;20034;-93
2024/03/01 10:20:07;;;;;;;32.17;19.15;;;;;;;15.70;50.40;99144.53;4966291;28;20030;-92
2024/03/01 10:23:19;;;;;;;31.73;17.90;;;;;;;15.78;50.31;99155.81;4965335;28;20027;-90
2024/03/01 10:26:08;;;;;;;33.95;18.27;;;;;;;15.90;50.01;99162.28;4983231;28;20030;-94
2024/03/01 10:28:42;;;;;;;31.88;17.70;;;;;;;15.96;49.89;99171.09;4951609;28;20035;-94
2024/03/01 10:31:14;;;;;;;26.60;15.23;;;;;;;16.02;48.57;99156.28;4980904;28;20035;-91
2024/03/01 10:33:57;;;;;;;22.33;14.65;;;;;;;16.02;48.15;99155.47;4964439;28;20049;-91
2024/03/01 10:36:45;;;;;;;18.73;9.20;;;;;;;16.24;44.86;99163.59;4952142;28;20034;-91
2024/03/01 10:39:17;;;;;;;11.43;6.13;;;;;;;16.12;41.50;99144.34;4964070;28;20037;-90
2024/03/01 10:42:07;;;;;;;13.02;6.20;;;;;;;16.28;41.63;99159.16;4975786;28;20030;-92
2024/03/01 10:44:58;;;;;;;19.48;8.10;;;;;;;16.42;42.24;99152.84;4967255;28;20038;-90
2024/03/01 10:47:28;;;;;;;26.13;15.23;;;;;;;16.49;44.86;99148.53;4946565;28;20054;-89
2024/03/01 10:50:06;;;;;;;27.20;11.85;;;;;;;16.28;45.46;99129.25;4967076;28;20031;-93
2024/03/01 10:52:41;;;;;;;20.77;10.13;;;;;;;16.33;45.04;99101.97;4965814;28;20042;-93
2024/03/01 10:55:39;;;;;;;27.50;10.77;;;;;;;16.57;44.51;99145.06;4962160;28;20034;-93
2024/03/01 10:58:09;;;;;;;23.20;10.70;;;;;;;16.38;44.48;99106.47;4969909;28;20022;-91
2024/03/01 11:01:04;;;;;;;19.38;11.02;;;;;;;16.40;44.17;99114.31;4949569;28;20445;-94
2024/03/01 11:03:45;;;;;;;16.95;8.82;;;;;;;16.38;44.36;99119.25;4949076;28;20070;-95
2024/03/01 11:06:30;;;;;;;19.97;8.93;;;;;;;16.49;44.43;99140.38;4953063;29;20063;-92
2024/03/01 11:09:20;;;;;;;25.35;11.82;;;;;;;16.33;44.16;99122.88;4954556;29;20023;-93
2024/03/01 11:12:11;;;;;;;21.35;9.75;;;;;;;16.38;43.99;99135.56;4967900;29;20054;-93
2024/03/01 11:14:39;;;;;;;21.15;11.60;;;;;;;16.23;44.22;99123.97;4970149;29;20031;-93
2024/03/01 11:17:05;;;;;;;21.15;10.68;;;;;;;16.27;44.31;99135.00;4966116;28;20051;-93
2024/03/01 11:19:39;;;;;;;27.65;10.40;;;;;;;16.23;43.94;99128.59;4950530;29;20037;-94
2024/03/01 11:22:32;;;;;;;19.98;10.20;;;;;;;16.09;43.26;99123.25;4939471;29;20015;-96
2024/03/01 11:25:07;;;;;;;21.77;10.20;;;;;;;16.03;43.11;99094.63;4966110;28;20031;-95
2024/03/01 11:27:35;;;;;;;15.30;8.15;;;;;;;16.03;42.77;99091.91;4947825;28;20787;-92
2024/03/01 11:30:05;;;;;;;21.67;9.90;;;;;;;16.05;43.12;99076.09;4934491;28;20074;-90
2024/03/01 11:32:32;;;;;;;18.02;11.05;;;;;;;16.10;42.38;99084.94;4939441;28;20027;-93
2024/03/01 11:35:53;;;;;;;16.83;10.35;;;;;;;16.18;41.54;99061.63;4940263;28;20015;-94
2024/03/01 11:38:43;;;;;;;13.82;7.35;;;;;;;16.25;40.51;99061.97;4978543;28;20046;-90
2024/03/01 11:41:34;;;;;;;12.80;7.80;;;;;;;16.19;39.26;99065.16;4957414;28;20504;-91
2024/03/01 11:44:12;;;;;;;20.52;10.15;;;;;;;16.42;39.39;99096.56;4934579;28;20115;-90
2024/03/01 11:47:12;;;;;;;14.02;7.43;;;;;;;16.39;39.67;99080.88;4964522;28;20058;-91
2024/03/01 11:49:53;;;;;;;14.60;6.88;;;;;;;16.46;40.04;99102.97;4957469;28;20035;-89
2024/03/01 11:52:37;;;;;;;14.80;7.82;;;;;;;16.35;40.82;99096.19;4951188;28;20126;-90
2024/03/01 11:55:40;;;;;;;16.75;7.55;;;;;;;16.28;39.99;99091.22;4968780;28;20032;-92
2024/03/01 11:58:43;;;;;;;14.68;7.53;;;;;;;16.21;40.34;99098.22;4968561;28;20035;-92
2024/03/01 12:01:31;;;;;;;14.52;7.55;;;;;;;16.22;40.96;99102.53;4953039;28;20085;-91
2024/03/01 12:04:25;;;;;;;17.35;6.50;;;;;;;16.07;41.52;99080.09;4985917;28;21303;-92